sensor_id;sensor_type;location;lat;lon;timestamp;temperature;humidity
5061;DHT22;2549;52.128;21.068;2023-02-28T00:00:37;3.40;75.20
5061;DHT22;2549;52.128;21.068;2023-02-28T00:03:04;3.50;75.40
5061;DHT22;2549;52.128;21.068;2023-02-28T00:05:31;3.50;75.50
5061;DHT22;2549;52.128;21.068;2023-02-28T00:07:58;3.40;75.20
5061;DHT22;2549;52.128;21.068;2023-02-28T00:10:28;3.40;75.20
5061;DHT22;2549;52.128;21.068;2023-02-28T00:13:02;3.40;75.30
5061;DHT22;2549;52.128;21.068;2023-02-28T00:15:29;3.30;75.40
5061;DHT22;2549;52.128;21.068;2023-02-28T00:17:56;3.30;75.40
5061;DHT22;2549;52.128;21.068;2023-02-28T00:20:24;3.30;75.50
5061;DHT22;2549;52.128;21.068;2023-02-28T00:22:52;3.20;75.40
5061;DHT22;2549;52.128;21.068;2023-02-28T00:25:24;3.30;75.70
5061;DHT22;2549;52.128;21.068;2023-02-28T00:27:52;3.20;75.80
5061;DHT22;2549;52.128;21.068;2023-02-28T00:30:21;3.20;75.80
5061;DHT22;2549;52.128;21.068;2023-02-28T00:32:49;3.20;76.00
5061;DHT22;2549;52.128;21.068;2023-02-28T00:35:18;3.20;75.80
5061;DHT22;2549;52.128;21.068;2023-02-28T00:37:44;3.20;75.80
5061;DHT22;2549;52.128;21.068;2023-02-28T00:40:11;3.10;76.10
5061;DHT22;2549;52.128;21.068;2023-02-28T00:42:39;3.10;76.00
5061;DHT22;2549;52.128;21.068;2023-02-28T00:45:06;3.10;76.10
5061;DHT22;2549;52.128;21.068;2023-02-28T00:47:35;3.10;76.30
5061;DHT22;2549;52.128;21.068;2023-02-28T00:50:03;3.10;76.50
5061;DHT22;2549;52.128;21.068;2023-02-28T00:52:30;3.00;76.40
5061;DHT22;2549;52.128;21.068;2023-02-28T00:54:57;3.00;76.60
5061;DHT22;2549;52.128;21.068;2023-02-28T00:57:24;3.00;76.60
5061;DHT22;2549;52.128;21.068;2023-02-28T00:59:53;3.00;76.40
5061;DHT22;2549;52.128;21.068;2023-02-28T01:02:22;3.00;76.70
5061;DHT22;2549;52.128;21.068;2023-02-28T01:04:49;2.90;76.60
5061;DHT22;2549;52.128;21.068;2023-02-28T01:07:16;2.90;77.00
5061;DHT22;2549;52.128;21.068;2023-02-28T01:09:42;2.90;77.80
5061;DHT22;2549;52.128;21.068;2023-02-28T01:12:09;2.90;77.30
5061;DHT22;2549;52.128;21.068;2023-02-28T01:14:36;2.90;77.20
5061;DHT22;2549;52.128;21.068;2023-02-28T01:17:03;2.90;77.30
5061;DHT22;2549;52.128;21.068;2023-02-28T01:19:30;2.90;77.40
5061;DHT22;2549;52.128;21.068;2023-02-28T01:21:59;2.90;77.50
5061;DHT22;2549;52.128;21.068;2023-02-28T01:24:26;2.90;78.20
5061;DHT22;2549;52.128;21.068;2023-02-28T01:26:53;2.90;77.30
5061;DHT22;2549;52.128;21.068;2023-02-28T01:29:20;2.80;77.10
5061;DHT22;2549;52.128;21.068;2023-02-28T01:31:47;2.80;77.90
5061;DHT22;2549;52.128;21.068;2023-02-28T01:34:13;2.80;77.40
5061;DHT22;2549;52.128;21.068;2023-02-28T01:36:40;2.80;77.40
5061;DHT22;2549;52.128;21.068;2023-02-28T01:39:07;2.70;77.30
5061;DHT22;2549;52.128;21.068;2023-02-28T01:41:34;2.70;77.50
5061;DHT22;2549;52.128;21.068;2023-02-28T01:47:10;2.60;77.90
5061;DHT22;2549;52.128;21.068;2023-02-28T01:49:37;2.50;77.80
5061;DHT22;2549;52.128;21.068;2023-02-28T01:52:04;2.50;78.30
5061;DHT22;2549;52.128;21.068;2023-02-28T01:54:33;2.50;78.50
5061;DHT22;2549;52.128;21.068;2023-02-28T01:57:10;2.50;78.50
5061;DHT22;2549;52.128;21.068;2023-02-28T01:59:52;2.50;79.50
5061;DHT22;2549;52.128;21.068;2023-02-28T02:02:21;2.50;78.80
5061;DHT22;2549;52.128;21.068;2023-02-28T02:05:03;2.50;78.90
5061;DHT22;2549;52.128;21.068;2023-02-28T02:07:34;2.50;79.20
5061;DHT22;2549;52.128;21.068;2023-02-28T02:29:56;2.30;80.10
5061;DHT22;2549;52.128;21.068;2023-02-28T02:44:01;2.30;80.70
5061;DHT22;2549;52.128;21.068;2023-02-28T02:46:33;2.30;80.90
5061;DHT22;2549;52.128;21.068;2023-02-28T02:49:04;2.30;80.70
5061;DHT22;2549;52.128;21.068;2023-02-28T02:51:33;2.30;80.70
5061;DHT22;2549;52.128;21.068;2023-02-28T02:54:23;2.20;80.90
5061;DHT22;2549;52.128;21.068;2023-02-28T02:56:57;2.20;81.10
5061;DHT22;2549;52.128;21.068;2023-02-28T02:59:27;2.20;81.20
5061;DHT22;2549;52.128;21.068;2023-02-28T03:01:57;2.10;81.30
5061;DHT22;2549;52.128;21.068;2023-02-28T03:04:30;2.10;81.30
5061;DHT22;2549;52.128;21.068;2023-02-28T03:06:59;2.10;81.50
5061;DHT22;2549;52.128;21.068;2023-02-28T03:09:26;2.10;81.40
5061;DHT22;2549;52.128;21.068;2023-02-28T03:11:55;2.10;81.40
5061;DHT22;2549;52.128;21.068;2023-02-28T03:14:37;2.10;81.20
5061;DHT22;2549;52.128;21.068;2023-02-28T03:23:23;2.10;81.70
5061;DHT22;2549;52.128;21.068;2023-02-28T03:26:00;2.00;81.70
5061;DHT22;2549;52.128;21.068;2023-02-28T03:28:36;2.00;81.50
5061;DHT22;2549;52.128;21.068;2023-02-28T03:33:51;2.00;81.30
5061;DHT22;2549;52.128;21.068;2023-02-28T03:36:31;2.00;81.40
5061;DHT22;2549;52.128;21.068;2023-02-28T03:39:03;2.00;81.30
5061;DHT22;2549;52.128;21.068;2023-02-28T03:41:38;2.00;81.50
5061;DHT22;2549;52.128;21.068;2023-02-28T03:49:42;2.00;81.50
5061;DHT22;2549;52.128;21.068;2023-02-28T03:52:12;2.00;81.30
5061;DHT22;2549;52.128;21.068;2023-02-28T03:54:45;2.00;81.40
5061;DHT22;2549;52.128;21.068;2023-02-28T03:59:56;2.00;81.70
5061;DHT22;2549;52.128;21.068;2023-02-28T04:02:24;1.90;81.50
5061;DHT22;2549;52.128;21.068;2023-02-28T04:04:51;2.00;81.50
5061;DHT22;2549;52.128;21.068;2023-02-28T04:07:18;2.00;81.60
5061;DHT22;2549;52.128;21.068;2023-02-28T04:09:45;2.00;81.60
5061;DHT22;2549;52.128;21.068;2023-02-28T04:12:12;2.00;81.60
5061;DHT22;2549;52.128;21.068;2023-02-28T04:14:38;2.00;81.70
5061;DHT22;2549;52.128;21.068;2023-02-28T04:17:05;1.90;81.80
5061;DHT22;2549;52.128;21.068;2023-02-28T04:19:32;1.90;81.80
5061;DHT22;2549;52.128;21.068;2023-02-28T04:21:59;1.90;81.80
5061;DHT22;2549;52.128;21.068;2023-02-28T04:24:27;1.90;82.00
5061;DHT22;2549;52.128;21.068;2023-02-28T04:26:56;1.90;82.10
5061;DHT22;2549;52.128;21.068;2023-02-28T04:29:29;1.90;82.50
5061;DHT22;2549;52.128;21.068;2023-02-28T04:31:57;1.90;82.30
5061;DHT22;2549;52.128;21.068;2023-02-28T04:34:26;1.90;82.40
5061;DHT22;2549;52.128;21.068;2023-02-28T04:36:53;1.90;83.20
5061;DHT22;2549;52.128;21.068;2023-02-28T04:39:38;1.90;82.60
5061;DHT22;2549;52.128;21.068;2023-02-28T04:42:06;1.90;82.20
5061;DHT22;2549;52.128;21.068;2023-02-28T04:44:33;1.80;83.20
5061;DHT22;2549;52.128;21.068;2023-02-28T04:46:59;1.80;82.60
5061;DHT22;2549;52.128;21.068;2023-02-28T04:49:26;1.80;82.70
5061;DHT22;2549;52.128;21.068;2023-02-28T04:51:53;1.80;82.70
5061;DHT22;2549;52.128;21.068;2023-02-28T04:54:21;1.80;82.60
5061;DHT22;2549;52.128;21.068;2023-02-28T04:56:48;1.80;82.70
5061;DHT22;2549;52.128;21.068;2023-02-28T04:59:17;1.80;82.80
5061;DHT22;2549;52.128;21.068;2023-02-28T05:01:47;1.80;82.60
5061;DHT22;2549;52.128;21.068;2023-02-28T05:04:15;1.70;82.60
5061;DHT22;2549;52.128;21.068;2023-02-28T05:06:42;1.70;83.10
5061;DHT22;2549;52.128;21.068;2023-02-28T05:09:09;1.70;83.00
5061;DHT22;2549;52.128;21.068;2023-02-28T05:11:39;1.70;83.20
5061;DHT22;2549;52.128;21.068;2023-02-28T05:14:11;1.70;83.30
5061;DHT22;2549;52.128;21.068;2023-02-28T05:16:39;1.70;83.00
5061;DHT22;2549;52.128;21.068;2023-02-28T05:19:06;1.70;83.00
5061;DHT22;2549;52.128;21.068;2023-02-28T05:21:51;1.70;82.80
5061;DHT22;2549;52.128;21.068;2023-02-28T05:24:18;1.70;83.10
5061;DHT22;2549;52.128;21.068;2023-02-28T05:26:54;1.70;82.90
5061;DHT22;2549;52.128;21.068;2023-02-28T05:29:22;1.70;82.90
5061;DHT22;2549;52.128;21.068;2023-02-28T05:31:49;1.70;82.80
5061;DHT22;2549;52.128;21.068;2023-02-28T05:34:16;1.60;82.80
5061;DHT22;2549;52.128;21.068;2023-02-28T05:36:43;1.70;83.00
5061;DHT22;2549;52.128;21.068;2023-02-28T05:39:10;1.70;83.00
5061;DHT22;2549;52.128;21.068;2023-02-28T05:41:41;1.70;83.00
5061;DHT22;2549;52.128;21.068;2023-02-28T05:44:08;1.70;83.20
5061;DHT22;2549;52.128;21.068;2023-02-28T05:46:35;1.70;83.20
5061;DHT22;2549;52.128;21.068;2023-02-28T05:49:03;1.70;83.20
5061;DHT22;2549;52.128;21.068;2023-02-28T05:51:30;1.70;83.40
5061;DHT22;2549;52.128;21.068;2023-02-28T05:54:01;1.80;83.90
5061;DHT22;2549;52.128;21.068;2023-02-28T05:56:28;1.80;84.00
5061;DHT22;2549;52.128;21.068;2023-02-28T05:58:55;1.70;84.10
5061;DHT22;2549;52.128;21.068;2023-02-28T06:01:24;1.80;84.10
5061;DHT22;2549;52.128;21.068;2023-02-28T06:03:53;1.70;84.30
5061;DHT22;2549;52.128;21.068;2023-02-28T06:06:20;1.70;84.40
5061;DHT22;2549;52.128;21.068;2023-02-28T06:08:46;1.70;84.60
5061;DHT22;2549;52.128;21.068;2023-02-28T06:11:16;1.80;84.70
5061;DHT22;2549;52.128;21.068;2023-02-28T06:13:46;1.70;84.70
5061;DHT22;2549;52.128;21.068;2023-02-28T06:16:13;1.70;85.00
5061;DHT22;2549;52.128;21.068;2023-02-28T06:18:40;1.80;85.50
5061;DHT22;2549;52.128;21.068;2023-02-28T06:21:07;1.80;85.70
5061;DHT22;2549;52.128;21.068;2023-02-28T06:23:35;1.80;85.80
5061;DHT22;2549;52.128;21.068;2023-02-28T06:26:02;1.80;85.70
5061;DHT22;2549;52.128;21.068;2023-02-28T06:28:29;1.90;85.80
5061;DHT22;2549;52.128;21.068;2023-02-28T06:30:56;1.90;85.90
5061;DHT22;2549;52.128;21.068;2023-02-28T06:33:24;1.90;85.80
5061;DHT22;2549;52.128;21.068;2023-02-28T06:35:52;1.90;85.60
5061;DHT22;2549;52.128;21.068;2023-02-28T06:38:20;1.90;85.60
5061;DHT22;2549;52.128;21.068;2023-02-28T06:40:53;1.90;85.60
5061;DHT22;2549;52.128;21.068;2023-02-28T06:43:21;1.90;85.80
5061;DHT22;2549;52.128;21.068;2023-02-28T06:45:48;1.90;86.00
5061;DHT22;2549;52.128;21.068;2023-02-28T06:48:16;1.90;85.80
5061;DHT22;2549;52.128;21.068;2023-02-28T06:50:43;1.90;85.20
5061;DHT22;2549;52.128;21.068;2023-02-28T06:53:10;1.90;84.60
5061;DHT22;2549;52.128;21.068;2023-02-28T06:55:38;1.90;85.00
5061;DHT22;2549;52.128;21.068;2023-02-28T06:58:05;2.00;85.20
5061;DHT22;2549;52.128;21.068;2023-02-28T07:00:41;2.00;85.20
5061;DHT22;2549;52.128;21.068;2023-02-28T07:03:09;2.10;85.50
5061;DHT22;2549;52.128;21.068;2023-02-28T07:05:37;2.10;85.40
5061;DHT22;2549;52.128;21.068;2023-02-28T07:08:05;2.20;85.40
5061;DHT22;2549;52.128;21.068;2023-02-28T07:10:33;2.30;85.60
5061;DHT22;2549;52.128;21.068;2023-02-28T07:13:00;2.30;85.80
5061;DHT22;2549;52.128;21.068;2023-02-28T07:15:27;2.40;86.00
5061;DHT22;2549;52.128;21.068;2023-02-28T07:17:54;2.50;86.10
5061;DHT22;2549;52.128;21.068;2023-02-28T07:20:21;2.50;85.70
5061;DHT22;2549;52.128;21.068;2023-02-28T07:22:48;2.50;85.10
5061;DHT22;2549;52.128;21.068;2023-02-28T07:25:28;2.50;85.20
5061;DHT22;2549;52.128;21.068;2023-02-28T07:27:56;2.60;85.20
5061;DHT22;2549;52.128;21.068;2023-02-28T07:30:23;2.60;84.90
5061;DHT22;2549;52.128;21.068;2023-02-28T07:32:50;2.60;84.60
5061;DHT22;2549;52.128;21.068;2023-02-28T07:35:17;2.70;84.20
5061;DHT22;2549;52.128;21.068;2023-02-28T07:37:44;2.70;84.10
5061;DHT22;2549;52.128;21.068;2023-02-28T07:40:11;2.80;84.30
5061;DHT22;2549;52.128;21.068;2023-02-28T07:42:39;2.80;84.10
5061;DHT22;2549;52.128;21.068;2023-02-28T07:45:08;2.80;84.20
5061;DHT22;2549;52.128;21.068;2023-02-28T07:47:37;2.90;84.00
5061;DHT22;2549;52.128;21.068;2023-02-28T07:50:06;2.90;83.40
5061;DHT22;2549;52.128;21.068;2023-02-28T07:52:33;3.00;83.10
5061;DHT22;2549;52.128;21.068;2023-02-28T07:55:00;3.00;82.60
5061;DHT22;2549;52.128;21.068;2023-02-28T07:57:27;3.00;82.10
5061;DHT22;2549;52.128;21.068;2023-02-28T07:59:54;3.00;82.20
5061;DHT22;2549;52.128;21.068;2023-02-28T08:02:21;3.00;81.50
5061;DHT22;2549;52.128;21.068;2023-02-28T08:04:48;3.10;80.90
5061;DHT22;2549;52.128;21.068;2023-02-28T08:07:16;3.10;79.90
5061;DHT22;2549;52.128;21.068;2023-02-28T08:09:44;3.10;79.20
5061;DHT22;2549;52.128;21.068;2023-02-28T08:12:11;3.10;79.10
5061;DHT22;2549;52.128;21.068;2023-02-28T08:14:38;3.10;78.80
5061;DHT22;2549;52.128;21.068;2023-02-28T08:17:06;3.10;78.10
5061;DHT22;2549;52.128;21.068;2023-02-28T08:19:33;3.20;77.50
5061;DHT22;2549;52.128;21.068;2023-02-28T08:22:00;3.20;77.50
5061;DHT22;2549;52.128;21.068;2023-02-28T08:24:27;3.20;77.60
5061;DHT22;2549;52.128;21.068;2023-02-28T08:26:54;3.30;77.90
5061;DHT22;2549;52.128;21.068;2023-02-28T08:29:21;3.30;78.00
5061;DHT22;2549;52.128;21.068;2023-02-28T08:31:49;3.40;78.00
5061;DHT22;2549;52.128;21.068;2023-02-28T08:34:16;3.40;77.80
5061;DHT22;2549;52.128;21.068;2023-02-28T08:36:43;3.40;77.40
5061;DHT22;2549;52.128;21.068;2023-02-28T08:39:12;3.40;77.20
5061;DHT22;2549;52.128;21.068;2023-02-28T08:41:39;3.40;76.10
5061;DHT22;2549;52.128;21.068;2023-02-28T08:44:06;3.40;75.80
5061;DHT22;2549;52.128;21.068;2023-02-28T08:46:33;3.40;75.60
5061;DHT22;2549;52.128;21.068;2023-02-28T08:49:00;3.40;75.70
5061;DHT22;2549;52.128;21.068;2023-02-28T08:51:28;3.40;75.80
5061;DHT22;2549;52.128;21.068;2023-02-28T08:53:59;3.40;75.20
5061;DHT22;2549;52.128;21.068;2023-02-28T08:56:28;3.40;75.50
5061;DHT22;2549;52.128;21.068;2023-02-28T08:58:56;3.40;75.50
5061;DHT22;2549;52.128;21.068;2023-02-28T09:01:28;3.40;75.40
5061;DHT22;2549;52.128;21.068;2023-02-28T09:03:56;3.40;75.40
5061;DHT22;2549;52.128;21.068;2023-02-28T09:06:25;3.40;75.60
5061;DHT22;2549;52.128;21.068;2023-02-28T09:08:56;3.40;75.00
5061;DHT22;2549;52.128;21.068;2023-02-28T09:11:25;3.50;75.20
5061;DHT22;2549;52.128;21.068;2023-02-28T09:13:52;3.50;74.90
5061;DHT22;2549;52.128;21.068;2023-02-28T09:16:19;3.50;74.80
5061;DHT22;2549;52.128;21.068;2023-02-28T09:18:46;3.60;74.70
5061;DHT22;2549;52.128;21.068;2023-02-28T09:21:16;3.60;74.80
5061;DHT22;2549;52.128;21.068;2023-02-28T09:23:44;3.70;75.00
5061;DHT22;2549;52.128;21.068;2023-02-28T09:26:20;3.70;75.40
5061;DHT22;2549;52.128;21.068;2023-02-28T09:28:49;3.80;75.20
5061;DHT22;2549;52.128;21.068;2023-02-28T09:31:22;3.80;74.60
5061;DHT22;2549;52.128;21.068;2023-02-28T09:33:51;3.80;74.50
5061;DHT22;2549;52.128;21.068;2023-02-28T09:36:19;3.80;74.30
5061;DHT22;2549;52.128;21.068;2023-02-28T09:38:47;3.80;73.90
5061;DHT22;2549;52.128;21.068;2023-02-28T09:43:50;3.90;74.00
5061;DHT22;2549;52.128;21.068;2023-02-28T09:46:38;4.00;73.80
5061;DHT22;2549;52.128;21.068;2023-02-28T09:49:17;3.90;74.10
5061;DHT22;2549;52.128;21.068;2023-02-28T09:51:51;3.90;73.90
5061;DHT22;2549;52.128;21.068;2023-02-28T09:54:24;3.90;73.60
5061;DHT22;2549;52.128;21.068;2023-02-28T10:03:03;4.10;73.90
5061;DHT22;2549;52.128;21.068;2023-02-28T10:08:22;4.20;73.40
5061;DHT22;2549;52.128;21.068;2023-02-28T10:10:57;4.20;72.70
5061;DHT22;2549;52.128;21.068;2023-02-28T10:16:22;3.90;72.70
5061;DHT22;2549;52.128;21.068;2023-02-28T10:21:57;4.10;72.80
5061;DHT22;2549;52.128;21.068;2023-02-28T10:24:35;4.20;72.50
5061;DHT22;2549;52.128;21.068;2023-02-28T10:27:22;4.30;72.20
5061;DHT22;2549;52.128;21.068;2023-02-28T10:29:55;4.30;72.10
5061;DHT22;2549;52.128;21.068;2023-02-28T10:32:30;4.30;72.60
5061;DHT22;2549;52.128;21.068;2023-02-28T10:35:16;4.40;72.90
5061;DHT22;2549;52.128;21.068;2023-02-28T10:37:47;4.40;72.90
5061;DHT22;2549;52.128;21.068;2023-02-28T10:46:01;4.50;71.80
5061;DHT22;2549;52.128;21.068;2023-02-28T10:48:44;4.30;71.50
5061;DHT22;2549;52.128;21.068;2023-02-28T10:51:15;4.30;71.80
5061;DHT22;2549;52.128;21.068;2023-02-28T10:53:51;4.20;72.40
5061;DHT22;2549;52.128;21.068;2023-02-28T10:56:28;4.30;72.60
5061;DHT22;2549;52.128;21.068;2023-02-28T11:07:10;4.60;74.00
5061;DHT22;2549;52.128;21.068;2023-02-28T11:09:47;4.70;73.80
5061;DHT22;2549;52.128;21.068;2023-02-28T11:12:26;4.70;72.80
5061;DHT22;2549;52.128;21.068;2023-02-28T11:14:56;4.70;71.80
5061;DHT22;2549;52.128;21.068;2023-02-28T11:17:30;4.50;72.60
5061;DHT22;2549;52.128;21.068;2023-02-28T11:20:04;4.50;72.40
5061;DHT22;2549;52.128;21.068;2023-02-28T11:22:39;4.70;72.20
5061;DHT22;2549;52.128;21.068;2023-02-28T11:25:13;4.70;72.00
5061;DHT22;2549;52.128;21.068;2023-02-28T11:27:49;4.70;71.70
5061;DHT22;2549;52.128;21.068;2023-02-28T11:33:26;4.80;72.20
5061;DHT22;2549;52.128;21.068;2023-02-28T11:35:57;4.90;72.10
5061;DHT22;2549;52.128;21.068;2023-02-28T11:38:26;4.90;72.80
5061;DHT22;2549;52.128;21.068;2023-02-28T11:46:41;5.00;72.40
5061;DHT22;2549;52.128;21.068;2023-02-28T11:57:03;4.90;71.90
5061;DHT22;2549;52.128;21.068;2023-02-28T12:03:22;4.90;72.90
5061;DHT22;2549;52.128;21.068;2023-02-28T12:11:54;5.30;72.90
5061;DHT22;2549;52.128;21.068;2023-02-28T12:20:49;5.50;73.10
5061;DHT22;2549;52.128;21.068;2023-02-28T12:28:20;5.00;72.10
5061;DHT22;2549;52.128;21.068;2023-02-28T12:31:11;5.10;72.20
5061;DHT22;2549;52.128;21.068;2023-02-28T12:33:43;5.20;72.10
5061;DHT22;2549;52.128;21.068;2023-02-28T12:36:15;5.30;72.30
5061;DHT22;2549;52.128;21.068;2023-02-28T12:38:51;5.30;72.30
5061;DHT22;2549;52.128;21.068;2023-02-28T12:41:33;5.40;71.90
5061;DHT22;2549;52.128;21.068;2023-02-28T12:44:26;5.50;71.80
5061;DHT22;2549;52.128;21.068;2023-02-28T12:46:56;5.50;71.70
5061;DHT22;2549;52.128;21.068;2023-02-28T12:49:58;5.40;71.80
5061;DHT22;2549;52.128;21.068;2023-02-28T12:52:37;5.50;71.60
5061;DHT22;2549;52.128;21.068;2023-02-28T12:55:23;5.50;71.70
5061;DHT22;2549;52.128;21.068;2023-02-28T13:06:16;5.60;72.00
5061;DHT22;2549;52.128;21.068;2023-02-28T13:14:06;5.40;71.50
5061;DHT22;2549;52.128;21.068;2023-02-28T13:19:31;5.60;72.00
5061;DHT22;2549;52.128;21.068;2023-02-28T13:21:59;5.70;72.60
5061;DHT22;2549;52.128;21.068;2023-02-28T13:24:52;5.60;71.80
5061;DHT22;2549;52.128;21.068;2023-02-28T13:29:52;5.60;71.20
5061;DHT22;2549;52.128;21.068;2023-02-28T13:32:29;5.70;71.30
5061;DHT22;2549;52.128;21.068;2023-02-28T13:39:59;5.90;70.70
5061;DHT22;2549;52.128;21.068;2023-02-28T13:42:35;5.90;70.40
5061;DHT22;2549;52.128;21.068;2023-02-28T13:48:13;5.90;70.40
5061;DHT22;2549;52.128;21.068;2023-02-28T13:50:36;5.70;70.00
5061;DHT22;2549;52.128;21.068;2023-02-28T13:53:37;5.80;70.10
5061;DHT22;2549;52.128;21.068;2023-02-28T13:56:24;5.80;70.00
5061;DHT22;2549;52.128;21.068;2023-02-28T13:58:59;5.90;70.20
5061;DHT22;2549;52.128;21.068;2023-02-28T14:07:02;6.00;70.20
5061;DHT22;2549;52.128;21.068;2023-02-28T14:09:41;6.00;70.10
5061;DHT22;2549;52.128;21.068;2023-02-28T14:18:20;5.90;68.70
5061;DHT22;2549;52.128;21.068;2023-02-28T14:20:54;5.70;69.40
5061;DHT22;2549;52.128;21.068;2023-02-28T14:31:48;5.90;70.10
5061;DHT22;2549;52.128;21.068;2023-02-28T14:36:52;6.00;71.40
5061;DHT22;2549;52.128;21.068;2023-02-28T14:39:22;6.00;71.70
5061;DHT22;2549;52.128;21.068;2023-02-28T14:41:50;6.10;71.50
5061;DHT22;2549;52.128;21.068;2023-02-28T14:44:22;6.00;71.90
5061;DHT22;2549;52.128;21.068;2023-02-28T14:46:58;6.10;72.20
5061;DHT22;2549;52.128;21.068;2023-02-28T14:49:36;6.10;71.90
5061;DHT22;2549;52.128;21.068;2023-02-28T14:52:23;6.10;71.10
5061;DHT22;2549;52.128;21.068;2023-02-28T14:54:58;6.00;71.00
5061;DHT22;2549;52.128;21.068;2023-02-28T14:57:35;6.00;70.90
5061;DHT22;2549;52.128;21.068;2023-02-28T15:00:27;6.10;71.50
5061;DHT22;2549;52.128;21.068;2023-02-28T15:02:55;6.10;71.80
5061;DHT22;2549;52.128;21.068;2023-02-28T15:05:31;6.10;72.10
5061;DHT22;2549;52.128;21.068;2023-02-28T15:08:17;6.10;72.10
5061;DHT22;2549;52.128;21.068;2023-02-28T15:10:56;6.10;72.30
5061;DHT22;2549;52.128;21.068;2023-02-28T15:16:17;6.10;72.30
5061;DHT22;2549;52.128;21.068;2023-02-28T15:18:56;6.10;71.90
5061;DHT22;2549;52.128;21.068;2023-02-28T15:21:33;6.10;71.60
5061;DHT22;2549;52.128;21.068;2023-02-28T15:26:43;6.10;71.50
5061;DHT22;2549;52.128;21.068;2023-02-28T15:29:19;6.10;71.40
5061;DHT22;2549;52.128;21.068;2023-02-28T15:32:05;6.10;71.30
5061;DHT22;2549;52.128;21.068;2023-02-28T15:34:44;6.00;71.30
5061;DHT22;2549;52.128;21.068;2023-02-28T15:40:15;6.00;72.10
5061;DHT22;2549;52.128;21.068;2023-02-28T15:42:43;6.00;72.60
5061;DHT22;2549;52.128;21.068;2023-02-28T15:53:27;5.90;73.20
5061;DHT22;2549;52.128;21.068;2023-02-28T15:55:59;5.90;73.00
5061;DHT22;2549;52.128;21.068;2023-02-28T15:58:27;5.90;73.00
5061;DHT22;2549;52.128;21.068;2023-02-28T16:01:15;5.90;73.20
5061;DHT22;2549;52.128;21.068;2023-02-28T16:03:46;5.90;73.50
5061;DHT22;2549;52.128;21.068;2023-02-28T16:08:49;5.80;73.50
5061;DHT22;2549;52.128;21.068;2023-02-28T16:11:19;5.80;73.80
5061;DHT22;2549;52.128;21.068;2023-02-28T16:13:46;5.80;73.80
5061;DHT22;2549;52.128;21.068;2023-02-28T16:16:22;5.80;74.20
5061;DHT22;2549;52.128;21.068;2023-02-28T16:18:51;5.70;74.10
5061;DHT22;2549;52.128;21.068;2023-02-28T16:21:18;5.70;74.00
5061;DHT22;2549;52.128;21.068;2023-02-28T16:23:45;5.60;73.90
5061;DHT22;2549;52.128;21.068;2023-02-28T16:26:20;5.60;74.10
5061;DHT22;2549;52.128;21.068;2023-02-28T16:28:47;5.60;74.10
5061;DHT22;2549;52.128;21.068;2023-02-28T16:31:15;5.60;74.20
5061;DHT22;2549;52.128;21.068;2023-02-28T16:33:44;5.60;74.30
5061;DHT22;2549;52.128;21.068;2023-02-28T16:36:20;5.50;74.40
5061;DHT22;2549;52.128;21.068;2023-02-28T16:38:47;5.50;74.40
5061;DHT22;2549;52.128;21.068;2023-02-28T16:41:18;5.50;75.20
5061;DHT22;2549;52.128;21.068;2023-02-28T16:43:50;5.40;74.90
5061;DHT22;2549;52.128;21.068;2023-02-28T16:46:18;5.40;75.00
5061;DHT22;2549;52.128;21.068;2023-02-28T16:48:46;5.40;75.00
5061;DHT22;2549;52.128;21.068;2023-02-28T16:51:18;5.30;75.00
5061;DHT22;2549;52.128;21.068;2023-02-28T16:53:45;5.30;75.10
5061;DHT22;2549;52.128;21.068;2023-02-28T16:56:20;5.20;75.30
5061;DHT22;2549;52.128;21.068;2023-02-28T16:58:49;5.20;75.60
5061;DHT22;2549;52.128;21.068;2023-02-28T17:01:17;5.20;75.50
5061;DHT22;2549;52.128;21.068;2023-02-28T17:03:49;5.10;75.40
5061;DHT22;2549;52.128;21.068;2023-02-28T17:06:22;5.10;75.60
5061;DHT22;2549;52.128;21.068;2023-02-28T17:08:50;5.10;75.70
5061;DHT22;2549;52.128;21.068;2023-02-28T17:11:18;5.10;75.80
5061;DHT22;2549;52.128;21.068;2023-02-28T17:13:47;5.10;76.10
5061;DHT22;2549;52.128;21.068;2023-02-28T17:16:29;5.10;76.00
5061;DHT22;2549;52.128;21.068;2023-02-28T17:19:03;5.00;76.20
5061;DHT22;2549;52.128;21.068;2023-02-28T17:21:32;5.00;76.40
5061;DHT22;2549;52.128;21.068;2023-02-28T17:23:59;5.00;76.50
5061;DHT22;2549;52.128;21.068;2023-02-28T17:26:26;5.00;76.50
5061;DHT22;2549;52.128;21.068;2023-02-28T17:28:56;4.90;76.70
5061;DHT22;2549;52.128;21.068;2023-02-28T17:31:24;4.90;77.00
5061;DHT22;2549;52.128;21.068;2023-02-28T17:33:53;4.90;77.30
5061;DHT22;2549;52.128;21.068;2023-02-28T17:36:27;4.90;77.40
5061;DHT22;2549;52.128;21.068;2023-02-28T17:38:55;4.90;77.60
5061;DHT22;2549;52.128;21.068;2023-02-28T17:41:22;4.80;77.60
5061;DHT22;2549;52.128;21.068;2023-02-28T17:43:49;4.90;77.90
5061;DHT22;2549;52.128;21.068;2023-02-28T17:46:22;4.80;78.00
5061;DHT22;2549;52.128;21.068;2023-02-28T17:48:51;4.80;78.00
5061;DHT22;2549;52.128;21.068;2023-02-28T17:51:20;4.80;78.10
5061;DHT22;2549;52.128;21.068;2023-02-28T17:53:47;4.70;77.90
5061;DHT22;2549;52.128;21.068;2023-02-28T17:56:21;4.80;78.30
5061;DHT22;2549;52.128;21.068;2023-02-28T17:58:51;4.70;78.20
5061;DHT22;2549;52.128;21.068;2023-02-28T18:01:19;4.70;78.60
5061;DHT22;2549;52.128;21.068;2023-02-28T18:03:47;4.70;79.00
5061;DHT22;2549;52.128;21.068;2023-02-28T18:06:36;4.70;78.80
5061;DHT22;2549;52.128;21.068;2023-02-28T18:09:17;4.60;78.80
5061;DHT22;2549;52.128;21.068;2023-02-28T18:11:45;4.60;78.90
5061;DHT22;2549;52.128;21.068;2023-02-28T18:14:11;4.60;78.80
5061;DHT22;2549;52.128;21.068;2023-02-28T18:16:39;4.60;78.90
5061;DHT22;2549;52.128;21.068;2023-02-28T18:19:06;4.60;79.20
5061;DHT22;2549;52.128;21.068;2023-02-28T18:21:34;4.60;79.40
5061;DHT22;2549;52.128;21.068;2023-02-28T18:24:01;4.60;79.20
5061;DHT22;2549;52.128;21.068;2023-02-28T18:26:28;4.50;79.50
5061;DHT22;2549;52.128;21.068;2023-02-28T18:28:56;4.50;79.60
5061;DHT22;2549;52.128;21.068;2023-02-28T18:31:23;4.50;79.60
5061;DHT22;2549;52.128;21.068;2023-02-28T18:33:51;4.50;79.60
5061;DHT22;2549;52.128;21.068;2023-02-28T18:36:19;4.50;79.70
5061;DHT22;2549;52.128;21.068;2023-02-28T18:38:47;4.50;79.70
5061;DHT22;2549;52.128;21.068;2023-02-28T18:41:17;4.50;79.90
5061;DHT22;2549;52.128;21.068;2023-02-28T18:43:44;4.50;80.20
5061;DHT22;2549;52.128;21.068;2023-02-28T18:46:13;4.50;80.00
5061;DHT22;2549;52.128;21.068;2023-02-28T18:48:40;4.50;80.20
5061;DHT22;2549;52.128;21.068;2023-02-28T18:53:42;4.40;81.10
5061;DHT22;2549;52.128;21.068;2023-02-28T18:56:15;4.40;81.20
5061;DHT22;2549;52.128;21.068;2023-02-28T18:58:42;4.40;81.30
5061;DHT22;2549;52.128;21.068;2023-02-28T19:01:28;4.40;81.20
5061;DHT22;2549;52.128;21.068;2023-02-28T19:04:00;4.40;81.10
5061;DHT22;2549;52.128;21.068;2023-02-28T19:06:28;4.40;81.30
5061;DHT22;2549;52.128;21.068;2023-02-28T19:08:58;4.40;81.50
5061;DHT22;2549;52.128;21.068;2023-02-28T19:11:26;4.40;81.30
5061;DHT22;2549;52.128;21.068;2023-02-28T19:13:53;4.40;81.20
5061;DHT22;2549;52.128;21.068;2023-02-28T19:16:21;4.40;81.30
5061;DHT22;2549;52.128;21.068;2023-02-28T19:18:48;4.40;81.20
5061;DHT22;2549;52.128;21.068;2023-02-28T19:21:17;4.40;81.50
5061;DHT22;2549;52.128;21.068;2023-02-28T19:23:44;4.40;81.60
5061;DHT22;2549;52.128;21.068;2023-02-28T19:26:14;4.30;81.70
5061;DHT22;2549;52.128;21.068;2023-02-28T19:28:42;4.30;82.00
5061;DHT22;2549;52.128;21.068;2023-02-28T19:31:13;4.30;82.10
5061;DHT22;2549;52.128;21.068;2023-02-28T19:33:41;4.30;82.40
5061;DHT22;2549;52.128;21.068;2023-02-28T19:36:09;4.30;82.40